Forside
METAR-TAF:

METAR-TAF

Lufthavne :

Coffeyville, Kansas, USA

Breddekreds: 37-05-28N, længdekreds: 095-33-59W, højde: 229 m

Aktuelle vejr

Denne rapport blev lavet for 42 minutter siden, kl. 11:52 UTC
Vind 15 kt fra syd med vindstød på up til 25 kt
Temperatur 10°C
Fugtighed 76%
Tryk 1008 hPa
Sigt: 16.1 km
Overskyet i en højde af 2100 ft

METAR: KCFV 221152Z AUTO 18015G25KT 10SM OVC021 10/06 A2978 RMK AO2 SLP086 T01000061 10100 20056 53002

Tid: 06:34 (12:34 UTC)


TAF: fraværende

Vejrobservationer og prognoser fra mere end 4000 lufthavne (METAR og TAF).

De gule og røde prikker repræsenterer de meteorologiske stationer.

Flyt musen over at se navnet på stationen.

Så klik over at se vejr observationer og prognoser.

At skifte det kort: Klik på de grønne knapper med et sort kors for at zoome ind; på den grønne knap med en bindestreg for at zoome ud; eller på de grønne pile for tilstødende kort.


METAR-TAF: